sensor_id;sensor_type;location;lat;lon;timestamp;temperature;humidity
29241;DHT22;16268;49.880;8.648;2022-08-21T00:01:44;19.50;99.90
29241;DHT22;16268;49.880;8.648;2022-08-21T00:04:10;19.60;99.90
29241;DHT22;16268;49.880;8.648;2022-08-21T00:06:37;19.70;99.90
29241;DHT22;16268;49.880;8.648;2022-08-21T00:09:04;19.80;99.90
29241;DHT22;16268;49.880;8.648;2022-08-21T00:11:31;19.80;99.90
29241;DHT22;16268;49.880;8.648;2022-08-21T00:13:57;19.90;99.90
29241;DHT22;16268;49.880;8.648;2022-08-21T00:16:22;20.00;99.90
29241;DHT22;16268;49.880;8.648;2022-08-21T00:18:49;20.00;99.90
29241;DHT22;16268;49.880;8.648;2022-08-21T00:21:15;19.90;99.90
29241;DHT22;16268;49.880;8.648;2022-08-21T00:23:40;19.90;99.90
29241;DHT22;16268;49.880;8.648;2022-08-21T00:26:07;19.90;99.90
29241;DHT22;16268;49.880;8.648;2022-08-21T00:28:32;19.80;99.90
29241;DHT22;16268;49.880;8.648;2022-08-21T00:30:58;19.80;99.90
29241;DHT22;16268;49.880;8.648;2022-08-21T00:33:25;19.60;99.90
29241;DHT22;16268;49.880;8.648;2022-08-21T00:35:51;19.50;99.90
29241;DHT22;16268;49.880;8.648;2022-08-21T00:38:17;19.40;99.90
29241;DHT22;16268;49.880;8.648;2022-08-21T00:40:48;19.30;99.90
29241;DHT22;16268;49.880;8.648;2022-08-21T00:43:17;19.10;99.90
29241;DHT22;16268;49.880;8.648;2022-08-21T00:45:44;19.20;99.90
29241;DHT22;16268;49.880;8.648;2022-08-21T00:48:10;19.20;99.90
29241;DHT22;16268;49.880;8.648;2022-08-21T00:50:42;19.30;99.90
29241;DHT22;16268;49.880;8.648;2022-08-21T00:53:09;19.40;99.90
29241;DHT22;16268;49.880;8.648;2022-08-21T00:55:36;19.40;99.90
29241;DHT22;16268;49.880;8.648;2022-08-21T00:58:04;19.20;99.90
29241;DHT22;16268;49.880;8.648;2022-08-21T01:00:33;19.10;99.90
29241;DHT22;16268;49.880;8.648;2022-08-21T01:03:01;19.30;99.90
29241;DHT22;16268;49.880;8.648;2022-08-21T01:05:27;19.30;99.90
29241;DHT22;16268;49.880;8.648;2022-08-21T01:07:54;19.40;99.90
29241;DHT22;16268;49.880;8.648;2022-08-21T01:10:22;19.40;99.90
29241;DHT22;16268;49.880;8.648;2022-08-21T01:12:49;19.40;99.90
29241;DHT22;16268;49.880;8.648;2022-08-21T01:15:16;19.30;99.90
29241;DHT22;16268;49.880;8.648;2022-08-21T01:17:43;19.20;99.90
29241;DHT22;16268;49.880;8.648;2022-08-21T01:20:10;19.20;99.90
29241;DHT22;16268;49.880;8.648;2022-08-21T01:22:36;19.20;99.90
29241;DHT22;16268;49.880;8.648;2022-08-21T01:25:09;19.30;99.90
29241;DHT22;16268;49.880;8.648;2022-08-21T01:27:36;19.30;99.90
29241;DHT22;16268;49.880;8.648;2022-08-21T01:30:15;19.30;99.90
29241;DHT22;16268;49.880;8.648;2022-08-21T01:32:41;19.30;99.90
29241;DHT22;16268;49.880;8.648;2022-08-21T01:35:08;19.30;99.90
29241;DHT22;16268;49.880;8.648;2022-08-21T01:37:35;19.20;99.90
29241;DHT22;16268;49.880;8.648;2022-08-21T01:40:00;19.30;99.90
29241;DHT22;16268;49.880;8.648;2022-08-21T01:42:26;19.30;99.90
29241;DHT22;16268;49.880;8.648;2022-08-21T01:44:52;19.30;99.90
29241;DHT22;16268;49.880;8.648;2022-08-21T01:47:18;19.30;99.90
29241;DHT22;16268;49.880;8.648;2022-08-21T01:49:44;19.20;99.90
29241;DHT22;16268;49.880;8.648;2022-08-21T01:52:10;19.30;99.90
29241;DHT22;16268;49.880;8.648;2022-08-21T01:54:36;19.20;99.90
29241;DHT22;16268;49.880;8.648;2022-08-21T01:57:03;19.10;99.90
29241;DHT22;16268;49.880;8.648;2022-08-21T01:59:28;19.10;99.90
29241;DHT22;16268;49.880;8.648;2022-08-21T02:01:57;19.10;99.90
29241;DHT22;16268;49.880;8.648;2022-08-21T02:04:23;19.10;99.90
29241;DHT22;16268;49.880;8.648;2022-08-21T02:06:49;19.10;99.90
29241;DHT22;16268;49.880;8.648;2022-08-21T02:09:16;19.20;99.90
29241;DHT22;16268;49.880;8.648;2022-08-21T02:11:42;19.20;99.90
29241;DHT22;16268;49.880;8.648;2022-08-21T02:14:09;19.20;99.90
29241;DHT22;16268;49.880;8.648;2022-08-21T02:16:37;19.20;99.90
29241;DHT22;16268;49.880;8.648;2022-08-21T02:19:03;19.10;99.90
29241;DHT22;16268;49.880;8.648;2022-08-21T02:21:28;19.10;99.90
29241;DHT22;16268;49.880;8.648;2022-08-21T02:23:54;19.10;99.90
29241;DHT22;16268;49.880;8.648;2022-08-21T02:26:19;19.10;99.90
29241;DHT22;16268;49.880;8.648;2022-08-21T02:28:45;19.10;99.90
29241;DHT22;16268;49.880;8.648;2022-08-21T02:31:11;19.10;99.90
29241;DHT22;16268;49.880;8.648;2022-08-21T02:33:37;19.10;99.90
29241;DHT22;16268;49.880;8.648;2022-08-21T02:36:03;19.00;99.90
29241;DHT22;16268;49.880;8.648;2022-08-21T02:38:31;19.00;99.90
29241;DHT22;16268;49.880;8.648;2022-08-21T02:41:00;19.10;99.90
29241;DHT22;16268;49.880;8.648;2022-08-21T02:43:27;19.10;99.90
29241;DHT22;16268;49.880;8.648;2022-08-21T02:45:55;19.00;99.90
29241;DHT22;16268;49.880;8.648;2022-08-21T02:48:27;19.00;99.90
29241;DHT22;16268;49.880;8.648;2022-08-21T02:50:59;19.00;99.90
29241;DHT22;16268;49.880;8.648;2022-08-21T02:53:26;19.00;99.90
29241;DHT22;16268;49.880;8.648;2022-08-21T02:55:52;18.90;99.90
29241;DHT22;16268;49.880;8.648;2022-08-21T02:58:25;18.90;99.90
29241;DHT22;16268;49.880;8.648;2022-08-21T03:00:51;18.90;99.90
29241;DHT22;16268;49.880;8.648;2022-08-21T03:03:17;18.90;99.90
29241;DHT22;16268;49.880;8.648;2022-08-21T03:05:43;18.90;99.90
29241;DHT22;16268;49.880;8.648;2022-08-21T03:08:11;19.00;99.90
29241;DHT22;16268;49.880;8.648;2022-08-21T03:10:39;18.90;99.90
29241;DHT22;16268;49.880;8.648;2022-08-21T03:13:05;18.90;99.90
29241;DHT22;16268;49.880;8.648;2022-08-21T03:15:32;18.90;99.90
29241;DHT22;16268;49.880;8.648;2022-08-21T03:18:01;18.90;99.90
29241;DHT22;16268;49.880;8.648;2022-08-21T03:20:28;18.80;99.90
29241;DHT22;16268;49.880;8.648;2022-08-21T03:22:55;18.90;99.90
29241;DHT22;16268;49.880;8.648;2022-08-21T03:25:21;18.80;99.90
29241;DHT22;16268;49.880;8.648;2022-08-21T03:27:47;18.80;99.90
29241;DHT22;16268;49.880;8.648;2022-08-21T03:30:17;18.80;99.90
29241;DHT22;16268;49.880;8.648;2022-08-21T03:32:44;18.80;99.90
29241;DHT22;16268;49.880;8.648;2022-08-21T03:35:09;18.80;99.90
29241;DHT22;16268;49.880;8.648;2022-08-21T03:37:35;18.80;99.90
29241;DHT22;16268;49.880;8.648;2022-08-21T03:40:05;18.80;99.90
29241;DHT22;16268;49.880;8.648;2022-08-21T03:42:31;18.80;99.90
29241;DHT22;16268;49.880;8.648;2022-08-21T03:44:56;18.70;99.90
29241;DHT22;16268;49.880;8.648;2022-08-21T03:47:22;18.70;99.90
29241;DHT22;16268;49.880;8.648;2022-08-21T03:49:48;18.70;99.90
29241;DHT22;16268;49.880;8.648;2022-08-21T03:52:14;18.60;99.90
29241;DHT22;16268;49.880;8.648;2022-08-21T03:54:40;18.70;99.90
29241;DHT22;16268;49.880;8.648;2022-08-21T03:57:06;18.60;99.90
29241;DHT22;16268;49.880;8.648;2022-08-21T03:59:32;18.60;99.90
29241;DHT22;16268;49.880;8.648;2022-08-21T04:01:59;18.60;99.90
29241;DHT22;16268;49.880;8.648;2022-08-21T04:04:27;18.60;99.90
29241;DHT22;16268;49.880;8.648;2022-08-21T04:06:53;18.60;99.90
29241;DHT22;16268;49.880;8.648;2022-08-21T04:09:19;18.50;99.90
29241;DHT22;16268;49.880;8.648;2022-08-21T04:11:45;18.50;99.90
29241;DHT22;16268;49.880;8.648;2022-08-21T04:14:13;18.50;99.90
29241;DHT22;16268;49.880;8.648;2022-08-21T04:16:39;18.50;99.90
29241;DHT22;16268;49.880;8.648;2022-08-21T04:19:05;18.40;99.90
29241;DHT22;16268;49.880;8.648;2022-08-21T04:21:31;18.40;99.90
29241;DHT22;16268;49.880;8.648;2022-08-21T04:23:57;18.40;99.90
29241;DHT22;16268;49.880;8.648;2022-08-21T04:26:23;18.30;99.90
29241;DHT22;16268;49.880;8.648;2022-08-21T04:28:49;18.30;99.90
29241;DHT22;16268;49.880;8.648;2022-08-21T04:31:14;18.30;99.90
29241;DHT22;16268;49.880;8.648;2022-08-21T04:33:40;18.30;99.90
29241;DHT22;16268;49.880;8.648;2022-08-21T04:36:06;18.30;99.90
29241;DHT22;16268;49.880;8.648;2022-08-21T04:38:32;18.20;99.90
29241;DHT22;16268;49.880;8.648;2022-08-21T04:40:58;18.20;99.90
29241;DHT22;16268;49.880;8.648;2022-08-21T04:43:23;18.20;99.90
29241;DHT22;16268;49.880;8.648;2022-08-21T04:45:50;18.20;99.90
29241;DHT22;16268;49.880;8.648;2022-08-21T04:48:19;18.10;99.90
29241;DHT22;16268;49.880;8.648;2022-08-21T04:51:15;18.00;99.90
29241;DHT22;16268;49.880;8.648;2022-08-21T04:54:01;18.10;99.90
29241;DHT22;16268;49.880;8.648;2022-08-21T04:56:52;18.20;99.90
29241;DHT22;16268;49.880;8.648;2022-08-21T04:59:36;18.20;99.90
29241;DHT22;16268;49.880;8.648;2022-08-21T05:02:02;18.20;99.90
29241;DHT22;16268;49.880;8.648;2022-08-21T05:04:30;18.00;99.90
29241;DHT22;16268;49.880;8.648;2022-08-21T05:07:01;17.80;99.90
29241;DHT22;16268;49.880;8.648;2022-08-21T05:09:28;17.70;99.90
29241;DHT22;16268;49.880;8.648;2022-08-21T05:11:54;17.90;99.90
29241;DHT22;16268;49.880;8.648;2022-08-21T05:14:20;18.10;99.90
29241;DHT22;16268;49.880;8.648;2022-08-21T05:16:46;18.20;99.90
29241;DHT22;16268;49.880;8.648;2022-08-21T05:19:12;18.40;99.90
29241;DHT22;16268;49.880;8.648;2022-08-21T05:21:41;18.40;99.90
29241;DHT22;16268;49.880;8.648;2022-08-21T05:24:08;18.40;99.90
29241;DHT22;16268;49.880;8.648;2022-08-21T05:26:33;18.50;99.90
29241;DHT22;16268;49.880;8.648;2022-08-21T05:28:59;18.70;99.90
29241;DHT22;16268;49.880;8.648;2022-08-21T05:31:25;18.90;99.90
29241;DHT22;16268;49.880;8.648;2022-08-21T05:33:50;19.10;99.90
29241;DHT22;16268;49.880;8.648;2022-08-21T05:36:17;19.20;99.90
29241;DHT22;16268;49.880;8.648;2022-08-21T05:38:42;19.00;99.90
29241;DHT22;16268;49.880;8.648;2022-08-21T05:41:08;18.80;99.90
29241;DHT22;16268;49.880;8.648;2022-08-21T05:43:34;18.90;99.90
29241;DHT22;16268;49.880;8.648;2022-08-21T05:46:02;19.00;99.90
29241;DHT22;16268;49.880;8.648;2022-08-21T05:48:28;19.00;99.90
29241;DHT22;16268;49.880;8.648;2022-08-21T05:50:53;19.30;99.90
29241;DHT22;16268;49.880;8.648;2022-08-21T05:53:20;19.40;99.90
29241;DHT22;16268;49.880;8.648;2022-08-21T05:55:47;20.10;99.90
29241;DHT22;16268;49.880;8.648;2022-08-21T05:58:14;21.00;99.90
29241;DHT22;16268;49.880;8.648;2022-08-21T06:00:40;22.00;99.90
29241;DHT22;16268;49.880;8.648;2022-08-21T06:03:12;22.40;99.90
29241;DHT22;16268;49.880;8.648;2022-08-21T06:05:38;23.20;99.90
29241;DHT22;16268;49.880;8.648;2022-08-21T06:08:04;24.20;99.90
29241;DHT22;16268;49.880;8.648;2022-08-21T06:10:29;25.30;98.20
29241;DHT22;16268;49.880;8.648;2022-08-21T06:12:55;26.60;95.10
29241;DHT22;16268;49.880;8.648;2022-08-21T06:15:21;27.30;91.40
29241;DHT22;16268;49.880;8.648;2022-08-21T06:17:46;27.50;89.70
29241;DHT22;16268;49.880;8.648;2022-08-21T06:20:12;27.90;87.20
29241;DHT22;16268;49.880;8.648;2022-08-21T06:22:37;28.30;85.40
29241;DHT22;16268;49.880;8.648;2022-08-21T06:25:03;27.70;84.00
29241;DHT22;16268;49.880;8.648;2022-08-21T06:27:29;28.10;84.50
29241;DHT22;16268;49.880;8.648;2022-08-21T06:29:54;28.10;82.50
29241;DHT22;16268;49.880;8.648;2022-08-21T06:32:22;27.70;84.10
29241;DHT22;16268;49.880;8.648;2022-08-21T06:34:48;27.40;85.10
29241;DHT22;16268;49.880;8.648;2022-08-21T06:37:13;28.20;84.20
29241;DHT22;16268;49.880;8.648;2022-08-21T06:39:39;28.90;81.00
29241;DHT22;16268;49.880;8.648;2022-08-21T06:42:04;28.50;79.20
29241;DHT22;16268;49.880;8.648;2022-08-21T06:44:30;29.10;78.90
29241;DHT22;16268;49.880;8.648;2022-08-21T06:46:56;29.10;77.50
29241;DHT22;16268;49.880;8.648;2022-08-21T06:49:22;29.00;77.60
29241;DHT22;16268;49.880;8.648;2022-08-21T06:51:47;29.40;77.20
29241;DHT22;16268;49.880;8.648;2022-08-21T06:54:13;29.30;76.40
29241;DHT22;16268;49.880;8.648;2022-08-21T06:56:38;29.70;75.90
29241;DHT22;16268;49.880;8.648;2022-08-21T06:59:04;29.40;74.70
29241;DHT22;16268;49.880;8.648;2022-08-21T07:01:30;29.60;74.80
29241;DHT22;16268;49.880;8.648;2022-08-21T07:03:56;30.00;74.40
29241;DHT22;16268;49.880;8.648;2022-08-21T07:06:22;30.20;72.60
29241;DHT22;16268;49.880;8.648;2022-08-21T07:08:47;30.40;72.00
29241;DHT22;16268;49.880;8.648;2022-08-21T07:11:18;30.30;70.90
29241;DHT22;16268;49.880;8.648;2022-08-21T07:13:44;30.70;69.60
29241;DHT22;16268;49.880;8.648;2022-08-21T07:16:10;30.10;69.90
29241;DHT22;16268;49.880;8.648;2022-08-21T07:18:36;29.70;71.90
29241;DHT22;16268;49.880;8.648;2022-08-21T07:21:03;29.80;72.00
29241;DHT22;16268;49.880;8.648;2022-08-21T07:23:39;30.30;71.40
29241;DHT22;16268;49.880;8.648;2022-08-21T07:26:06;30.60;71.00
29241;DHT22;16268;49.880;8.648;2022-08-21T07:28:32;30.80;70.80
29241;DHT22;16268;49.880;8.648;2022-08-21T07:30:59;31.10;70.10
29241;DHT22;16268;49.880;8.648;2022-08-21T07:33:27;31.10;70.10
29241;DHT22;16268;49.880;8.648;2022-08-21T07:35:53;30.70;71.50
29241;DHT22;16268;49.880;8.648;2022-08-21T07:38:20;31.20;70.70
29241;DHT22;16268;49.880;8.648;2022-08-21T07:40:46;30.80;70.40
29241;DHT22;16268;49.880;8.648;2022-08-21T07:43:12;30.80;70.70
29241;DHT22;16268;49.880;8.648;2022-08-21T07:45:38;31.00;71.00
29241;DHT22;16268;49.880;8.648;2022-08-21T07:48:04;30.90;71.30
29241;DHT22;16268;49.880;8.648;2022-08-21T07:50:30;31.40;71.30
29241;DHT22;16268;49.880;8.648;2022-08-21T07:52:55;31.20;70.60
29241;DHT22;16268;49.880;8.648;2022-08-21T07:55:21;31.20;72.40
29241;DHT22;16268;49.880;8.648;2022-08-21T07:57:48;31.50;72.40
29241;DHT22;16268;49.880;8.648;2022-08-21T08:00:17;31.50;72.30
29241;DHT22;16268;49.880;8.648;2022-08-21T08:02:47;32.00;71.40
29241;DHT22;16268;49.880;8.648;2022-08-21T08:05:16;32.10;70.20
29241;DHT22;16268;49.880;8.648;2022-08-21T08:07:42;31.90;70.60
29241;DHT22;16268;49.880;8.648;2022-08-21T08:10:09;32.00;70.70
29241;DHT22;16268;49.880;8.648;2022-08-21T08:12:36;31.50;70.70
29241;DHT22;16268;49.880;8.648;2022-08-21T08:15:03;31.70;72.10
29241;DHT22;16268;49.880;8.648;2022-08-21T08:17:29;32.40;70.40
29241;DHT22;16268;49.880;8.648;2022-08-21T08:19:57;32.50;69.60
29241;DHT22;16268;49.880;8.648;2022-08-21T08:22:23;31.70;70.60
29241;DHT22;16268;49.880;8.648;2022-08-21T08:24:50;32.00;70.30
29241;DHT22;16268;49.880;8.648;2022-08-21T08:27:16;32.20;70.40
29241;DHT22;16268;49.880;8.648;2022-08-21T08:29:44;32.50;68.80
29241;DHT22;16268;49.880;8.648;2022-08-21T08:32:09;32.00;69.40
29241;DHT22;16268;49.880;8.648;2022-08-21T08:34:37;32.10;70.40
29241;DHT22;16268;49.880;8.648;2022-08-21T08:37:03;32.00;69.00
29241;DHT22;16268;49.880;8.648;2022-08-21T08:39:29;32.00;70.90
29241;DHT22;16268;49.880;8.648;2022-08-21T08:42:22;32.70;68.20
29241;DHT22;16268;49.880;8.648;2022-08-21T08:44:57;33.20;66.20
29241;DHT22;16268;49.880;8.648;2022-08-21T08:47:24;33.30;65.40
29241;DHT22;16268;49.880;8.648;2022-08-21T08:50:05;33.30;65.40
29241;DHT22;16268;49.880;8.648;2022-08-21T08:52:35;33.10;65.10
29241;DHT22;16268;49.880;8.648;2022-08-21T08:55:07;32.80;65.40
29241;DHT22;16268;49.880;8.648;2022-08-21T08:57:35;32.90;65.30
29241;DHT22;16268;49.880;8.648;2022-08-21T09:00:04;32.90;65.90
29241;DHT22;16268;49.880;8.648;2022-08-21T09:02:31;33.20;66.30
29241;DHT22;16268;49.880;8.648;2022-08-21T09:04:59;33.30;65.20
29241;DHT22;16268;49.880;8.648;2022-08-21T09:10:21;33.70;63.60
29241;DHT22;16268;49.880;8.648;2022-08-21T09:13:24;33.90;61.00
29241;DHT22;16268;49.880;8.648;2022-08-21T09:16:32;34.20;58.60
29241;DHT22;16268;49.880;8.648;2022-08-21T09:19:26;34.00;58.30
29241;DHT22;16268;49.880;8.648;2022-08-21T09:22:08;33.80;58.90
29241;DHT22;16268;49.880;8.648;2022-08-21T09:24:50;33.80;58.20
29241;DHT22;16268;49.880;8.648;2022-08-21T09:27:18;34.20;56.50
29241;DHT22;16268;49.880;8.648;2022-08-21T09:29:47;34.30;53.50
29241;DHT22;16268;49.880;8.648;2022-08-21T09:32:25;34.00;54.10
29241;DHT22;16268;49.880;8.648;2022-08-21T09:37:25;32.90;57.10
29241;DHT22;16268;49.880;8.648;2022-08-21T09:39:52;33.00;58.10
29241;DHT22;16268;49.880;8.648;2022-08-21T09:42:29;33.30;58.70
29241;DHT22;16268;49.880;8.648;2022-08-21T09:45:11;32.80;58.60
29241;DHT22;16268;49.880;8.648;2022-08-21T09:47:37;32.30;59.10
29241;DHT22;16268;49.880;8.648;2022-08-21T09:50:14;31.90;59.00
29241;DHT22;16268;49.880;8.648;2022-08-21T09:52:48;31.80;58.70
29241;DHT22;16268;49.880;8.648;2022-08-21T09:55:29;32.20;57.90
29241;DHT22;16268;49.880;8.648;2022-08-21T09:58:15;31.90;58.40
29241;DHT22;16268;49.880;8.648;2022-08-21T10:00:40;31.40;59.00
29241;DHT22;16268;49.880;8.648;2022-08-21T10:03:12;31.40;59.00
29241;DHT22;16268;49.880;8.648;2022-08-21T10:05:39;31.60;59.50
29241;DHT22;16268;49.880;8.648;2022-08-21T10:08:17;32.50;58.20
29241;DHT22;16268;49.880;8.648;2022-08-21T10:10:42;32.60;57.30
29241;DHT22;16268;49.880;8.648;2022-08-21T10:22:17;32.60;54.50
29241;DHT22;16268;49.880;8.648;2022-08-21T10:25:14;32.50;54.70
29241;DHT22;16268;49.880;8.648;2022-08-21T10:28:13;31.60;55.60
29241;DHT22;16268;49.880;8.648;2022-08-21T10:30:54;30.90;57.30
29241;DHT22;16268;49.880;8.648;2022-08-21T10:41:51;30.50;58.10
29241;DHT22;16268;49.880;8.648;2022-08-21T10:44:33;30.70;56.60
29241;DHT22;16268;49.880;8.648;2022-08-21T10:52:26;31.20;55.70
29241;DHT22;16268;49.880;8.648;2022-08-21T10:55:02;31.20;55.20
29241;DHT22;16268;49.880;8.648;2022-08-21T11:00:09;31.20;54.70
29241;DHT22;16268;49.880;8.648;2022-08-21T11:08:32;29.80;57.30
29241;DHT22;16268;49.880;8.648;2022-08-21T11:11:03;29.70;58.20
29241;DHT22;16268;49.880;8.648;2022-08-21T11:13:43;29.80;59.20
29241;DHT22;16268;49.880;8.648;2022-08-21T11:22:01;29.80;58.00
29241;DHT22;16268;49.880;8.648;2022-08-21T11:24:38;29.80;58.10
29241;DHT22;16268;49.880;8.648;2022-08-21T11:29:58;29.70;57.50
29241;DHT22;16268;49.880;8.648;2022-08-21T11:32:53;29.80;57.00
29241;DHT22;16268;49.880;8.648;2022-08-21T11:35:48;29.70;56.90
29241;DHT22;16268;49.880;8.648;2022-08-21T11:38:35;29.70;57.90
29241;DHT22;16268;49.880;8.648;2022-08-21T11:43:44;29.70;56.70
29241;DHT22;16268;49.880;8.648;2022-08-21T11:51:50;29.40;57.30
29241;DHT22;16268;49.880;8.648;2022-08-21T11:54:33;29.30;57.40
29241;DHT22;16268;49.880;8.648;2022-08-21T11:57:08;29.40;56.80
29241;DHT22;16268;49.880;8.648;2022-08-21T11:59:55;29.40;57.10
29241;DHT22;16268;49.880;8.648;2022-08-21T12:02:28;29.40;57.20
29241;DHT22;16268;49.880;8.648;2022-08-21T12:04:58;29.50;57.10
29241;DHT22;16268;49.880;8.648;2022-08-21T12:07:39;29.60;57.50
29241;DHT22;16268;49.880;8.648;2022-08-21T12:10:11;29.60;57.80
29241;DHT22;16268;49.880;8.648;2022-08-21T12:12:39;29.40;57.60
29241;DHT22;16268;49.880;8.648;2022-08-21T12:18:18;29.50;57.10
29241;DHT22;16268;49.880;8.648;2022-08-21T12:20:57;29.70;57.00
29241;DHT22;16268;49.880;8.648;2022-08-21T12:23:57;29.70;56.60
29241;DHT22;16268;49.880;8.648;2022-08-21T12:26:17;29.80;56.30
29241;DHT22;16268;49.880;8.648;2022-08-21T12:28:44;29.40;56.10
29241;DHT22;16268;49.880;8.648;2022-08-21T12:31:24;29.50;55.10
29241;DHT22;16268;49.880;8.648;2022-08-21T12:33:56;29.50;55.70
29241;DHT22;16268;49.880;8.648;2022-08-21T12:36:29;29.30;55.70
29241;DHT22;16268;49.880;8.648;2022-08-21T12:39:15;29.40;56.30
29241;DHT22;16268;49.880;8.648;2022-08-21T12:41:51;29.50;56.60
29241;DHT22;16268;49.880;8.648;2022-08-21T12:44:28;29.70;56.10
29241;DHT22;16268;49.880;8.648;2022-08-21T12:47:04;29.70;55.60
29241;DHT22;16268;49.880;8.648;2022-08-21T12:49:43;29.60;55.10
29241;DHT22;16268;49.880;8.648;2022-08-21T12:55:01;29.40;56.50
29241;DHT22;16268;49.880;8.648;2022-08-21T12:57:29;29.40;56.40
29241;DHT22;16268;49.880;8.648;2022-08-21T13:00:02;29.40;56.50
29241;DHT22;16268;49.880;8.648;2022-08-21T13:02:36;29.60;56.40
29241;DHT22;16268;49.880;8.648;2022-08-21T13:05:06;29.70;54.20
29241;DHT22;16268;49.880;8.648;2022-08-21T13:07:35;29.40;54.70
29241;DHT22;16268;49.880;8.648;2022-08-21T13:10:18;29.10;55.70
29241;DHT22;16268;49.880;8.648;2022-08-21T13:12:46;29.00;56.20
29241;DHT22;16268;49.880;8.648;2022-08-21T13:15:13;29.00;56.20
29241;DHT22;16268;49.880;8.648;2022-08-21T13:17:41;29.00;55.90
29241;DHT22;16268;49.880;8.648;2022-08-21T13:20:24;28.80;56.20
29241;DHT22;16268;49.880;8.648;2022-08-21T13:22:50;28.70;57.20
29241;DHT22;16268;49.880;8.648;2022-08-21T13:25:19;28.60;56.70
29241;DHT22;16268;49.880;8.648;2022-08-21T13:28:00;28.50;57.00
29241;DHT22;16268;49.880;8.648;2022-08-21T13:30:29;28.60;57.10
29241;DHT22;16268;49.880;8.648;2022-08-21T13:32:58;28.80;56.50
29241;DHT22;16268;49.880;8.648;2022-08-21T13:35:31;28.90;55.70
29241;DHT22;16268;49.880;8.648;2022-08-21T13:38:00;28.80;56.10
29241;DHT22;16268;49.880;8.648;2022-08-21T13:40:30;28.80;56.70
29241;DHT22;16268;49.880;8.648;2022-08-21T13:42:57;28.40;57.60
29241;DHT22;16268;49.880;8.648;2022-08-21T13:45:49;28.40;57.10
29241;DHT22;16268;49.880;8.648;2022-08-21T13:48:16;28.70;56.80
29241;DHT22;16268;49.880;8.648;2022-08-21T13:50:42;28.90;55.50
29241;DHT22;16268;49.880;8.648;2022-08-21T13:53:23;29.00;55.80
29241;DHT22;16268;49.880;8.648;2022-08-21T13:55:49;29.10;54.80
29241;DHT22;16268;49.880;8.648;2022-08-21T13:58:28;29.00;54.80
29241;DHT22;16268;49.880;8.648;2022-08-21T14:00:55;28.80;55.70
29241;DHT22;16268;49.880;8.648;2022-08-21T14:03:42;28.70;55.40
29241;DHT22;16268;49.880;8.648;2022-08-21T14:06:13;28.70;55.70
29241;DHT22;16268;49.880;8.648;2022-08-21T14:08:39;28.70;56.20
29241;DHT22;16268;49.880;8.648;2022-08-21T14:11:10;28.60;56.00
29241;DHT22;16268;49.880;8.648;2022-08-21T14:13:47;28.80;55.70
29241;DHT22;16268;49.880;8.648;2022-08-21T14:16:18;28.80;55.20
29241;DHT22;16268;49.880;8.648;2022-08-21T14:18:47;28.60;55.70
29241;DHT22;16268;49.880;8.648;2022-08-21T14:21:12;28.70;55.70
29241;DHT22;16268;49.880;8.648;2022-08-21T14:23:39;28.80;54.50
29241;DHT22;16268;49.880;8.648;2022-08-21T14:26:06;28.60;54.40
29241;DHT22;16268;49.880;8.648;2022-08-21T14:28:33;28.50;54.90
29241;DHT22;16268;49.880;8.648;2022-08-21T14:31:11;28.30;54.60
29241;DHT22;16268;49.880;8.648;2022-08-21T14:33:37;28.40;54.30
29241;DHT22;16268;49.880;8.648;2022-08-21T14:36:03;28.60;54.20
29241;DHT22;16268;49.880;8.648;2022-08-21T14:38:29;28.60;55.20
29241;DHT22;16268;49.880;8.648;2022-08-21T14:40:57;28.70;54.50
29241;DHT22;16268;49.880;8.648;2022-08-21T14:43:25;28.90;53.60
29241;DHT22;16268;49.880;8.648;2022-08-21T14:45:51;29.10;53.30
29241;DHT22;16268;49.880;8.648;2022-08-21T14:48:17;29.20;53.20
29241;DHT22;16268;49.880;8.648;2022-08-21T14:50:42;29.20;52.30
29241;DHT22;16268;49.880;8.648;2022-08-21T14:53:08;29.20;52.20
29241;DHT22;16268;49.880;8.648;2022-08-21T14:55:34;29.10;51.90
29241;DHT22;16268;49.880;8.648;2022-08-21T14:58:21;29.00;51.30
29241;DHT22;16268;49.880;8.648;2022-08-21T15:00:49;28.80;51.90
29241;DHT22;16268;49.880;8.648;2022-08-21T15:03:15;28.60;54.20
29241;DHT22;16268;49.880;8.648;2022-08-21T15:05:40;28.60;53.70
29241;DHT22;16268;49.880;8.648;2022-08-21T15:08:06;28.70;53.20
29241;DHT22;16268;49.880;8.648;2022-08-21T15:10:33;28.90;53.60
29241;DHT22;16268;49.880;8.648;2022-08-21T15:12:59;28.90;53.30
29241;DHT22;16268;49.880;8.648;2022-08-21T15:15:25;29.00;53.20
29241;DHT22;16268;49.880;8.648;2022-08-21T15:17:50;29.00;52.40
29241;DHT22;16268;49.880;8.648;2022-08-21T15:20:16;29.10;52.40
29241;DHT22;16268;49.880;8.648;2022-08-21T15:22:42;29.10;53.80
29241;DHT22;16268;49.880;8.648;2022-08-21T15:25:07;29.00;54.00
29241;DHT22;16268;49.880;8.648;2022-08-21T15:27:34;28.90;54.20
29241;DHT22;16268;49.880;8.648;2022-08-21T15:30:02;28.90;54.00
29241;DHT22;16268;49.880;8.648;2022-08-21T15:32:28;28.70;54.20
29241;DHT22;16268;49.880;8.648;2022-08-21T15:34:56;28.60;53.40
29241;DHT22;16268;49.880;8.648;2022-08-21T15:37:23;28.70;52.70
29241;DHT22;16268;49.880;8.648;2022-08-21T15:39:49;28.70;52.90
29241;DHT22;16268;49.880;8.648;2022-08-21T15:42:16;28.70;52.70
29241;DHT22;16268;49.880;8.648;2022-08-21T15:44:42;28.30;54.70
29241;DHT22;16268;49.880;8.648;2022-08-21T15:47:14;28.10;56.50
29241;DHT22;16268;49.880;8.648;2022-08-21T15:49:41;28.00;54.60
29241;DHT22;16268;49.880;8.648;2022-08-21T15:52:11;28.10;54.80
29241;DHT22;16268;49.880;8.648;2022-08-21T15:54:36;27.90;54.20
29241;DHT22;16268;49.880;8.648;2022-08-21T15:57:02;27.90;54.40
29241;DHT22;16268;49.880;8.648;2022-08-21T15:59:32;27.90;54.50
29241;DHT22;16268;49.880;8.648;2022-08-21T16:02:03;27.90;55.20
29241;DHT22;16268;49.880;8.648;2022-08-21T16:04:28;28.00;55.70
29241;DHT22;16268;49.880;8.648;2022-08-21T16:06:54;28.00;55.30
29241;DHT22;16268;49.880;8.648;2022-08-21T16:09:20;28.20;54.80
29241;DHT22;16268;49.880;8.648;2022-08-21T16:11:46;28.20;54.50
29241;DHT22;16268;49.880;8.648;2022-08-21T16:14:14;28.30;54.30
29241;DHT22;16268;49.880;8.648;2022-08-21T16:16:40;28.30;54.60
29241;DHT22;16268;49.880;8.648;2022-08-21T16:19:06;28.10;55.70
29241;DHT22;16268;49.880;8.648;2022-08-21T16:21:33;28.10;55.00
29241;DHT22;16268;49.880;8.648;2022-08-21T16:23:59;28.10;54.90
29241;DHT22;16268;49.880;8.648;2022-08-21T16:26:26;28.20;54.40
29241;DHT22;16268;49.880;8.648;2022-08-21T16:28:54;28.20;54.70
29241;DHT22;16268;49.880;8.648;2022-08-21T16:31:22;28.20;54.90
29241;DHT22;16268;49.880;8.648;2022-08-21T16:33:51;28.20;55.10
29241;DHT22;16268;49.880;8.648;2022-08-21T16:36:17;28.10;54.50
29241;DHT22;16268;49.880;8.648;2022-08-21T16:38:43;28.10;54.00
29241;DHT22;16268;49.880;8.648;2022-08-21T16:41:14;28.10;54.40
29241;DHT22;16268;49.880;8.648;2022-08-21T16:43:41;28.10;54.60